createdAt,value
2022-10-31T00:01:50.793Z,2.13
2022-10-31T00:05:52.783Z,2.20
2022-10-31T00:09:54.379Z,2.35
2022-10-31T00:13:57.399Z,2.08
2022-10-31T00:18:00.082Z,2.03
2022-10-31T00:22:02.108Z,1.83
2022-10-31T00:26:04.968Z,2.28
2022-10-31T00:30:07.121Z,2.00
2022-10-31T00:34:08.717Z,2.15
2022-10-31T00:38:10.282Z,2.50
2022-10-31T00:42:11.861Z,1.95
2022-10-31T00:46:13.958Z,1.88
2022-10-31T00:50:15.583Z,2.15
2022-10-31T00:54:17.163Z,2.17
2022-10-31T00:58:18.746Z,1.80
2022-10-31T01:02:20.519Z,2.30
2022-10-31T01:06:22.223Z,1.98
2022-10-31T01:10:24.195Z,2.42
2022-10-31T01:14:25.872Z,2.30
2022-10-31T01:18:28.736Z,2.13
2022-10-31T01:22:30.338Z,2.08
2022-10-31T01:26:33.940Z,2.20
2022-10-31T01:30:35.566Z,2.10
2022-10-31T01:34:37.146Z,2.35
2022-10-31T01:38:38.973Z,2.22
2022-10-31T01:42:41.208Z,2.70
2022-10-31T01:46:47.763Z,2.10
2022-10-31T01:50:52.272Z,1.83
2022-10-31T01:55:05.014Z,2.08
2022-10-31T01:59:12.205Z,2.08
2022-10-31T02:03:13.945Z,2.25
2022-10-31T02:07:22.031Z,2.17
2022-10-31T02:11:24.115Z,2.90
2022-10-31T02:15:25.765Z,2.53
2022-10-31T02:19:52.795Z,2.60
2022-10-31T02:24:12.944Z,2.97
2022-10-31T02:28:35.807Z,3.80
2022-10-31T02:33:26.821Z,4.10
2022-10-31T02:37:50.032Z,3.42
2022-10-31T02:42:03.617Z,3.42
2022-10-31T02:46:38.434Z,3.08
2022-10-31T02:50:45.976Z,3.03
2022-10-31T02:54:48.931Z,3.25
2022-10-31T02:58:55.310Z,3.05
2022-10-31T03:03:20.251Z,3.08
2022-10-31T03:08:01.748Z,3.58
2022-10-31T03:12:12.526Z,3.30
2022-10-31T03:16:20.676Z,2.80
2022-10-31T03:20:27.185Z,2.97
2022-10-31T03:24:33.199Z,3.25
2022-10-31T03:28:55.571Z,3.15
2022-10-31T03:32:59.956Z,3.10
2022-10-31T03:37:05.756Z,3.08
2022-10-31T03:41:11.418Z,3.22
2022-10-31T03:45:21.948Z,3.35
2022-10-31T03:49:24.116Z,2.80
2022-10-31T03:53:32.908Z,3.35
2022-10-31T03:57:46.502Z,2.55
2022-10-31T04:01:53.548Z,3.17
2022-10-31T04:05:57.683Z,3.08
2022-10-31T04:10:03.273Z,3.28
2022-10-31T04:14:06.787Z,4.03
2022-10-31T04:18:08.565Z,3.53
2022-10-31T04:22:10.297Z,3.97
2022-10-31T04:26:13.348Z,4.13
2022-10-31T04:30:15.049Z,3.40
2022-10-31T04:34:16.736Z,3.97
2022-10-31T04:38:18.308Z,3.45
2022-10-31T04:42:19.960Z,3.58
2022-10-31T04:50:24.450Z,3.83
2022-10-31T04:54:26.004Z,3.72
2022-10-31T04:58:28.381Z,3.95
2022-10-31T05:02:30.037Z,3.83
2022-10-31T05:06:31.770Z,3.72
2022-10-31T05:10:33.449Z,3.83
2022-10-31T05:14:35.031Z,3.85
2022-10-31T05:18:36.646Z,4.10
2022-10-31T05:22:38.426Z,4.20
2022-10-31T05:26:40.045Z,4.05
2022-10-31T05:30:41.694Z,3.80
2022-10-31T05:34:43.331Z,3.22
2022-10-31T05:38:44.951Z,3.90
2022-10-31T05:42:47.250Z,3.80
2022-10-31T05:46:49.046Z,3.50
2022-10-31T05:50:50.779Z,3.45
2022-10-31T05:54:52.351Z,3.90
2022-10-31T05:58:53.933Z,3.42
2022-10-31T06:03:03.148Z,3.90
2022-10-31T06:07:04.789Z,4.20
2022-10-31T06:11:06.418Z,3.90
2022-10-31T06:15:09.566Z,3.63
2022-10-31T06:19:11.360Z,3.85
2022-10-31T06:23:12.997Z,3.20
2022-10-31T06:27:14.674Z,3.40
2022-10-31T06:31:16.280Z,3.85
2022-10-31T06:35:18.387Z,3.90
2022-10-31T06:39:20.245Z,3.67
2022-10-31T06:43:23.226Z,3.95
2022-10-31T06:47:24.890Z,3.65
2022-10-31T06:51:26.989Z,4.07
2022-10-31T06:55:28.712Z,2.92
2022-10-31T06:59:30.446Z,3.25
2022-10-31T07:03:32.074Z,3.20
2022-10-31T07:07:33.657Z,3.55
2022-10-31T07:11:35.290Z,3.45
2022-10-31T07:15:38.714Z,3.20
2022-10-31T07:19:40.345Z,3.35
2022-10-31T07:23:41.950Z,3.00
2022-10-31T07:27:44.339Z,3.28
2022-10-31T07:31:47.285Z,3.35
2022-10-31T07:35:48.848Z,3.45
2022-10-31T07:39:50.552Z,3.13
2022-10-31T07:47:59.152Z,3.03
2022-10-31T07:52:01.222Z,3.53
2022-10-31T07:56:02.847Z,3.38
2022-10-31T08:00:10.057Z,3.13
2022-10-31T08:04:11.685Z,3.08
2022-10-31T08:08:14.306Z,3.20
2022-10-31T08:12:15.938Z,3.15
2022-10-31T08:16:17.511Z,3.40
2022-10-31T08:20:19.576Z,2.70
2022-10-31T08:24:23.989Z,2.67
2022-10-31T08:28:25.772Z,2.80
2022-10-31T08:32:27.375Z,2.88
2022-10-31T08:36:29.504Z,3.17
2022-10-31T08:40:33.108Z,3.03
2022-10-31T08:44:34.687Z,3.30
2022-10-31T08:48:36.314Z,3.13
2022-10-31T08:53:03.035Z,3.10
2022-10-31T08:56:59.562Z,2.65
2022-10-31T09:01:02.395Z,3.20
2022-10-31T09:05:04.267Z,3.13
2022-10-31T09:09:05.984Z,2.90
2022-10-31T09:13:16.100Z,3.33
2022-10-31T09:17:17.681Z,3.20
2022-10-31T09:21:19.396Z,2.90
2022-10-31T09:25:20.973Z,2.90
2022-10-31T09:29:22.696Z,2.88
2022-10-31T09:33:24.527Z,3.17
2022-10-31T09:37:26.089Z,2.65
2022-10-31T09:41:51.823Z,2.72
2022-10-31T09:46:13.177Z,2.80
2022-10-31T09:50:30.004Z,3.08
2022-10-31T09:54:53.351Z,3.10
2022-10-31T09:58:59.222Z,2.90
2022-10-31T10:03:15.664Z,2.90
2022-10-31T10:12:10.538Z,2.92
2022-10-31T10:16:39.080Z,2.60
2022-10-31T10:20:54.012Z,2.47
2022-10-31T10:25:14.894Z,2.50
2022-10-31T10:29:37.799Z,2.83
2022-10-31T10:33:58.386Z,2.72
2022-10-31T10:42:32.081Z,2.83
2022-10-31T10:47:27.560Z,2.80
2022-10-31T10:52:20.305Z,2.83
2022-10-31T10:56:55.827Z,2.53
2022-10-31T11:00:57.681Z,2.90
2022-10-31T11:05:02.071Z,2.65
2022-10-31T11:09:11.295Z,2.65
2022-10-31T11:13:18.540Z,3.15
2022-10-31T11:17:31.628Z,2.50
2022-10-31T11:21:35.560Z,2.80
2022-10-31T11:25:37.307Z,2.60
2022-10-31T11:29:39.087Z,3.45
2022-10-31T11:33:46.012Z,3.13
2022-10-31T11:37:50.436Z,3.00
2022-10-31T11:41:55.115Z,2.70
2022-10-31T11:45:57.699Z,3.00
2022-10-31T11:50:03.962Z,2.88
2022-10-31T11:54:06.418Z,2.60
2022-10-31T11:58:26.256Z,3.13
2022-10-31T12:02:28.235Z,2.95
2022-10-31T12:06:34.725Z,2.95
2022-10-31T12:10:52.554Z,2.55
2022-10-31T12:15:21.280Z,2.80
2022-10-31T12:19:46.053Z,3.00
2022-10-31T12:23:53.438Z,2.85
2022-10-31T12:27:55.018Z,2.50
2022-10-31T12:32:35.790Z,2.63
2022-10-31T12:37:06.957Z,2.45
2022-10-31T12:41:34.926Z,2.83
2022-10-31T12:45:36.479Z,2.60
2022-10-31T12:49:46.919Z,3.08
2022-10-31T12:53:53.957Z,2.65
2022-10-31T12:58:03.129Z,3.10
2022-10-31T13:02:14.525Z,2.70
2022-10-31T13:06:31.861Z,2.70
2022-10-31T13:10:48.951Z,3.20
2022-10-31T13:14:55.541Z,3.05
2022-10-31T13:19:30.407Z,3.00
2022-10-31T13:23:50.377Z,3.55
2022-10-31T13:28:01.802Z,3.13
2022-10-31T13:32:07.963Z,5.72
2022-10-31T13:40:37.723Z,4.85
2022-10-31T13:44:39.469Z,8.88
2022-10-31T13:48:43.437Z,10.30
2022-10-31T13:52:45.097Z,10.05
2022-10-31T13:56:51.121Z,14.43
2022-10-31T14:01:16.220Z,13.73
2022-10-31T14:05:27.084Z,20.38
2022-10-31T14:09:32.599Z,18.25
2022-10-31T14:13:39.162Z,17.73
2022-10-31T14:17:57.956Z,20.40
2022-10-31T14:21:59.678Z,21.02
2022-10-31T14:26:27.307Z,22.05
2022-10-31T14:30:30.360Z,22.95
2022-10-31T14:34:37.556Z,21.40
2022-10-31T14:39:00.646Z,22.35
2022-10-31T14:43:26.387Z,23.10
2022-10-31T14:48:07.065Z,23.52
2022-10-31T14:52:15.195Z,22.33
2022-10-31T14:56:30.584Z,22.75
2022-10-31T15:00:33.836Z,22.40
2022-10-31T15:04:36.846Z,21.42
2022-10-31T15:08:46.467Z,24.42
2022-10-31T15:12:48.301Z,23.48
2022-10-31T15:16:50.355Z,21.42
2022-10-31T15:20:53.903Z,22.73
2022-10-31T15:24:57.295Z,22.98
2022-10-31T15:29:04.265Z,23.30
2022-10-31T15:33:21.714Z,22.67
2022-10-31T15:37:25.856Z,22.35
2022-10-31T15:41:30.725Z,21.33
2022-10-31T15:45:32.628Z,21.95
2022-10-31T15:49:37.861Z,23.60
2022-10-31T15:53:49.214Z,22.97
2022-10-31T15:58:00.478Z,22.30
2022-10-31T16:02:04.493Z,22.23
2022-10-31T16:06:06.840Z,21.27
2022-10-31T16:10:24.976Z,22.45
2022-10-31T16:14:29.858Z,21.38
2022-10-31T16:18:37.727Z,21.70
2022-10-31T16:22:40.585Z,20.75
2022-10-31T16:26:42.608Z,21.23
2022-10-31T16:30:49.908Z,19.67
2022-10-31T16:35:10.291Z,18.00
2022-10-31T16:39:12.322Z,20.95
2022-10-31T16:43:16.020Z,17.92
2022-10-31T16:47:18.584Z,19.17
2022-10-31T16:51:20.356Z,16.88
2022-10-31T16:55:22.196Z,17.67
2022-10-31T16:59:23.784Z,15.88
2022-10-31T17:03:25.550Z,16.05
2022-10-31T17:07:27.143Z,15.30
2022-10-31T17:11:28.780Z,14.45
2022-10-31T17:15:37.999Z,15.07
2022-10-31T17:19:39.596Z,14.43
2022-10-31T17:23:44.154Z,13.82
2022-10-31T17:27:47.414Z,12.80
2022-10-31T17:31:49.443Z,13.23
2022-10-31T17:35:51.656Z,13.02
2022-10-31T17:39:53.354Z,12.63
2022-10-31T17:43:56.559Z,12.80
2022-10-31T17:47:58.152Z,12.55
2022-10-31T17:51:59.847Z,12.73
2022-10-31T17:56:09.086Z,11.95
2022-10-31T18:00:16.373Z,11.57
2022-10-31T18:04:17.986Z,10.73
2022-10-31T18:08:19.651Z,10.75
2022-10-31T18:12:21.229Z,10.73
2022-10-31T18:16:23.500Z,9.85
2022-10-31T18:20:25.226Z,10.25
2022-10-31T18:24:28.930Z,9.15
2022-10-31T18:28:30.507Z,9.85
2022-10-31T18:32:32.091Z,10.55
2022-10-31T18:36:34.110Z,9.82
2022-10-31T18:40:36.099Z,9.65
2022-10-31T18:44:38.142Z,9.02
2022-10-31T18:48:42.183Z,8.65
2022-10-31T18:52:43.855Z,8.98
2022-10-31T18:56:45.512Z,8.98
2022-10-31T19:00:47.680Z,9.15
2022-10-31T19:04:49.266Z,8.27
2022-10-31T19:08:56.203Z,7.90
2022-10-31T19:12:57.956Z,9.20
2022-10-31T19:17:02.192Z,8.82
2022-10-31T19:21:08.904Z,9.27
2022-10-31T19:25:11.114Z,8.75
2022-10-31T19:29:12.945Z,9.82
2022-10-31T19:33:14.528Z,10.35
2022-10-31T19:37:16.140Z,10.02
2022-10-31T19:41:26.652Z,9.77
2022-10-31T19:45:28.289Z,9.98
2022-10-31T19:49:29.868Z,10.00
2022-10-31T19:53:32.411Z,10.63
2022-10-31T19:57:56.607Z,9.50
2022-10-31T20:01:58.088Z,10.18
2022-10-31T20:06:03.389Z,10.50
2022-10-31T20:10:05.418Z,11.17
2022-10-31T20:14:08.707Z,9.63
2022-10-31T20:18:10.297Z,10.52
2022-10-31T20:22:12.185Z,10.80
2022-10-31T20:26:18.961Z,10.02
2022-10-31T20:30:20.810Z,10.27
2022-10-31T20:34:22.380Z,9.65
2022-10-31T20:38:24.025Z,9.77
2022-10-31T20:42:25.708Z,9.63
2022-10-31T20:46:27.507Z,9.52
2022-10-31T20:50:29.412Z,9.45
2022-10-31T20:54:31.132Z,9.25
2022-10-31T20:58:32.971Z,8.52
2022-10-31T21:02:34.673Z,8.38
2022-10-31T21:06:36.409Z,7.78
2022-10-31T21:10:40.189Z,9.45
2022-10-31T21:14:41.754Z,9.13
2022-10-31T21:18:44.738Z,8.43
2022-10-31T21:22:46.379Z,8.60
2022-10-31T21:26:50.728Z,7.88
2022-10-31T21:30:52.362Z,8.40
2022-10-31T21:34:53.955Z,8.02
2022-10-31T21:38:56.437Z,8.13
2022-10-31T21:42:58.765Z,9.52
2022-10-31T21:47:09.652Z,9.60
2022-10-31T21:51:16.794Z,8.95
2022-10-31T21:55:18.432Z,9.57
2022-10-31T21:59:20.124Z,9.35
2022-10-31T22:03:21.752Z,10.10
2022-10-31T22:07:23.429Z,9.18
2022-10-31T22:11:25.373Z,9.30
2022-10-31T22:15:27.157Z,9.32
2022-10-31T22:19:28.794Z,9.32
2022-10-31T22:23:30.952Z,10.00
2022-10-31T22:27:32.544Z,9.95
2022-10-31T22:31:37.525Z,10.73
2022-10-31T22:35:39.117Z,10.30
2022-10-31T22:39:40.689Z,9.75
2022-10-31T22:43:42.312Z,10.40
2022-10-31T22:47:43.974Z,10.98
2022-10-31T22:51:46.124Z,9.80
2022-10-31T22:55:50.244Z,11.15
2022-10-31T22:59:51.808Z,11.77
2022-10-31T23:03:53.468Z,10.55
2022-10-31T23:07:55.035Z,11.15
2022-10-31T23:12:16.706Z,11.43
2022-10-31T23:16:18.279Z,10.98
2022-10-31T23:20:19.848Z,11.27
2022-10-31T23:24:25.345Z,11.45
2022-10-31T23:28:26.914Z,11.95
2022-10-31T23:32:37.344Z,12.45
2022-10-31T23:36:38.923Z,11.20
2022-10-31T23:40:40.606Z,10.68
2022-10-31T23:44:42.765Z,11.52
2022-10-31T23:48:47.951Z,11.43
2022-10-31T23:52:49.563Z,10.73
2022-10-31T23:56:51.380Z,11.57
